Terminal Aerodrome Forecast
Issued by NWS Melbourne, FL

Home | Current Version | Previous Version | Text Only | Print | Product List | Glossary On
Versions: 1 2 3 4 5 6 7 8 9 10 11 12 13 14 15 16 17 18 19 20 21 22 23 24 25 26
000
FTUS42 KMLB 161100
TAFMCO
TAF
KMCO 161130Z 1612/1712 01012KT P6SM SCT020
      TEMPO 1612/1613 BKN020
     FM161400 03016G25KT P6SM SCT040 SCT150
     FM170000 02010KT P6SM BKN030=

USA.gov is the U.S. government's official web portal to all federal, state and local government web resources and services.